sensor_id;sensor_type;location;lat;lon;timestamp;temperature;humidity
15930;DHT22;8064;51.142;4.780;2023-04-15T00:00:28;10.60;91.60
15930;DHT22;8064;51.142;4.780;2023-04-15T00:02:54;10.60;91.70
15930;DHT22;8064;51.142;4.780;2023-04-15T00:05:20;10.60;91.70
15930;DHT22;8064;51.142;4.780;2023-04-15T00:07:46;10.60;91.70
15930;DHT22;8064;51.142;4.780;2023-04-15T00:10:12;10.60;91.70
15930;DHT22;8064;51.142;4.780;2023-04-15T00:12:39;10.60;91.80
15930;DHT22;8064;51.142;4.780;2023-04-15T00:15:07;10.60;91.80
15930;DHT22;8064;51.142;4.780;2023-04-15T00:17:33;10.60;91.80
15930;DHT22;8064;51.142;4.780;2023-04-15T00:19:59;10.60;91.90
15930;DHT22;8064;51.142;4.780;2023-04-15T00:22:26;10.60;91.90
15930;DHT22;8064;51.142;4.780;2023-04-15T00:24:52;10.60;92.00
15930;DHT22;8064;51.142;4.780;2023-04-15T00:27:18;10.60;92.00
15930;DHT22;8064;51.142;4.780;2023-04-15T00:29:45;10.60;92.00
15930;DHT22;8064;51.142;4.780;2023-04-15T00:32:11;10.60;92.00
15930;DHT22;8064;51.142;4.780;2023-04-15T00:34:37;10.60;92.00
15930;DHT22;8064;51.142;4.780;2023-04-15T00:37:02;10.60;92.00
15930;DHT22;8064;51.142;4.780;2023-04-15T00:39:28;10.60;92.00
15930;DHT22;8064;51.142;4.780;2023-04-15T00:41:54;10.60;92.10
15930;DHT22;8064;51.142;4.780;2023-04-15T00:44:20;10.60;92.10
15930;DHT22;8064;51.142;4.780;2023-04-15T00:46:47;10.60;92.10
15930;DHT22;8064;51.142;4.780;2023-04-15T00:49:15;10.60;92.10
15930;DHT22;8064;51.142;4.780;2023-04-15T00:51:42;10.60;92.10
15930;DHT22;8064;51.142;4.780;2023-04-15T00:54:09;10.60;92.20
15930;DHT22;8064;51.142;4.780;2023-04-15T00:56:37;10.60;92.20
15930;DHT22;8064;51.142;4.780;2023-04-15T00:59:04;10.60;92.30
15930;DHT22;8064;51.142;4.780;2023-04-15T01:01:34;10.60;92.30
15930;DHT22;8064;51.142;4.780;2023-04-15T01:04:00;10.60;92.30
15930;DHT22;8064;51.142;4.780;2023-04-15T01:06:26;10.60;92.40
15930;DHT22;8064;51.142;4.780;2023-04-15T01:08:54;10.60;92.40
15930;DHT22;8064;51.142;4.780;2023-04-15T01:11:20;10.60;92.40
15930;DHT22;8064;51.142;4.780;2023-04-15T01:13:50;10.60;92.50
15930;DHT22;8064;51.142;4.780;2023-04-15T01:16:17;10.60;92.50
15930;DHT22;8064;51.142;4.780;2023-04-15T01:18:43;10.60;92.60
15930;DHT22;8064;51.142;4.780;2023-04-15T01:21:10;10.60;92.60
15930;DHT22;8064;51.142;4.780;2023-04-15T01:23:37;10.60;92.70
15930;DHT22;8064;51.142;4.780;2023-04-15T01:26:04;10.60;92.70
15930;DHT22;8064;51.142;4.780;2023-04-15T01:28:30;10.60;92.80
15930;DHT22;8064;51.142;4.780;2023-04-15T01:31:12;10.60;92.80
15930;DHT22;8064;51.142;4.780;2023-04-15T01:33:40;10.60;92.90
15930;DHT22;8064;51.142;4.780;2023-04-15T01:36:07;10.50;92.80
15930;DHT22;8064;51.142;4.780;2023-04-15T01:38:34;10.50;92.80
15930;DHT22;8064;51.142;4.780;2023-04-15T01:41:00;10.50;92.80
15930;DHT22;8064;51.142;4.780;2023-04-15T01:43:26;10.50;92.80
15930;DHT22;8064;51.142;4.780;2023-04-15T01:45:52;10.50;92.80
15930;DHT22;8064;51.142;4.780;2023-04-15T01:48:18;10.40;92.80
15930;DHT22;8064;51.142;4.780;2023-04-15T01:50:44;10.40;92.80
15930;DHT22;8064;51.142;4.780;2023-04-15T01:53:10;10.40;92.80
15930;DHT22;8064;51.142;4.780;2023-04-15T01:55:36;10.40;92.80
15930;DHT22;8064;51.142;4.780;2023-04-15T01:58:02;10.40;92.80
15930;DHT22;8064;51.142;4.780;2023-04-15T02:00:28;10.40;92.80
15930;DHT22;8064;51.142;4.780;2023-04-15T02:02:55;10.40;92.70
15930;DHT22;8064;51.142;4.780;2023-04-15T02:05:20;10.30;92.70
15930;DHT22;8064;51.142;4.780;2023-04-15T02:07:47;10.40;92.90
15930;DHT22;8064;51.142;4.780;2023-04-15T02:10:13;10.30;93.00
15930;DHT22;8064;51.142;4.780;2023-04-15T02:12:40;10.30;93.10
15930;DHT22;8064;51.142;4.780;2023-04-15T02:15:07;10.30;93.20
15930;DHT22;8064;51.142;4.780;2023-04-15T02:17:34;10.30;93.30
15930;DHT22;8064;51.142;4.780;2023-04-15T02:20:00;10.30;93.50
15930;DHT22;8064;51.142;4.780;2023-04-15T02:22:26;10.30;93.60
15930;DHT22;8064;51.142;4.780;2023-04-15T02:24:53;10.30;93.70
15930;DHT22;8064;51.142;4.780;2023-04-15T02:27:18;10.20;93.80
15930;DHT22;8064;51.142;4.780;2023-04-15T02:29:45;10.20;93.90
15930;DHT22;8064;51.142;4.780;2023-04-15T02:32:11;10.20;94.00
15930;DHT22;8064;51.142;4.780;2023-04-15T02:34:39;10.10;94.10
15930;DHT22;8064;51.142;4.780;2023-04-15T02:37:08;10.10;94.10
15930;DHT22;8064;51.142;4.780;2023-04-15T02:39:34;10.10;94.20
15930;DHT22;8064;51.142;4.780;2023-04-15T02:41:59;10.10;94.30
15930;DHT22;8064;51.142;4.780;2023-04-15T02:44:26;10.10;94.30
15930;DHT22;8064;51.142;4.780;2023-04-15T02:46:52;10.10;94.30
15930;DHT22;8064;51.142;4.780;2023-04-15T02:49:20;10.10;94.40
15930;DHT22;8064;51.142;4.780;2023-04-15T02:51:46;10.10;94.50
15930;DHT22;8064;51.142;4.780;2023-04-15T02:54:17;10.00;94.50
15930;DHT22;8064;51.142;4.780;2023-04-15T02:56:43;10.00;94.50
15930;DHT22;8064;51.142;4.780;2023-04-15T02:59:09;10.00;94.50
15930;DHT22;8064;51.142;4.780;2023-04-15T03:01:35;10.00;94.50
15930;DHT22;8064;51.142;4.780;2023-04-15T03:04:00;10.00;94.50
15930;DHT22;8064;51.142;4.780;2023-04-15T03:06:26;10.00;94.50
15930;DHT22;8064;51.142;4.780;2023-04-15T03:08:52;10.00;94.50
15930;DHT22;8064;51.142;4.780;2023-04-15T03:11:19;10.00;94.50
15930;DHT22;8064;51.142;4.780;2023-04-15T03:13:45;10.00;94.40
15930;DHT22;8064;51.142;4.780;2023-04-15T03:16:11;10.00;94.50
15930;DHT22;8064;51.142;4.780;2023-04-15T03:18:37;10.00;94.50
15930;DHT22;8064;51.142;4.780;2023-04-15T03:21:03;10.00;94.50
15930;DHT22;8064;51.142;4.780;2023-04-15T03:23:30;10.00;94.50
15930;DHT22;8064;51.142;4.780;2023-04-15T03:25:56;10.00;94.80
15930;DHT22;8064;51.142;4.780;2023-04-15T03:28:23;10.00;94.70
15930;DHT22;8064;51.142;4.780;2023-04-15T03:30:49;10.00;94.80
15930;DHT22;8064;51.142;4.780;2023-04-15T03:33:15;10.00;94.80
15930;DHT22;8064;51.142;4.780;2023-04-15T03:35:41;10.00;95.00
15930;DHT22;8064;51.142;4.780;2023-04-15T03:38:06;9.90;95.60
15930;DHT22;8064;51.142;4.780;2023-04-15T03:40:32;9.90;95.80
15930;DHT22;8064;51.142;4.780;2023-04-15T03:42:58;9.90;95.90
15930;DHT22;8064;51.142;4.780;2023-04-15T03:45:24;9.90;96.10
15930;DHT22;8064;51.142;4.780;2023-04-15T03:47:50;9.90;96.20
15930;DHT22;8064;51.142;4.780;2023-04-15T03:50:16;9.90;96.30
15930;DHT22;8064;51.142;4.780;2023-04-15T03:52:43;9.90;96.30
15930;DHT22;8064;51.142;4.780;2023-04-15T03:55:10;9.80;96.40
15930;DHT22;8064;51.142;4.780;2023-04-15T03:57:35;9.80;96.40
15930;DHT22;8064;51.142;4.780;2023-04-15T04:00:04;9.80;96.40
15930;DHT22;8064;51.142;4.780;2023-04-15T04:02:30;9.80;96.50
15930;DHT22;8064;51.142;4.780;2023-04-15T04:04:56;9.80;96.50
15930;DHT22;8064;51.142;4.780;2023-04-15T04:07:22;9.80;96.50
15930;DHT22;8064;51.142;4.780;2023-04-15T04:09:48;9.80;96.50
15930;DHT22;8064;51.142;4.780;2023-04-15T04:12:14;9.80;96.50
15930;DHT22;8064;51.142;4.780;2023-04-15T04:14:40;9.80;96.60
15930;DHT22;8064;51.142;4.780;2023-04-15T04:17:05;9.80;96.60
15930;DHT22;8064;51.142;4.780;2023-04-15T04:19:31;9.80;96.60
15930;DHT22;8064;51.142;4.780;2023-04-15T04:21:57;9.80;96.70
15930;DHT22;8064;51.142;4.780;2023-04-15T04:24:23;9.70;96.70
15930;DHT22;8064;51.142;4.780;2023-04-15T04:26:48;9.70;96.80
15930;DHT22;8064;51.142;4.780;2023-04-15T04:29:14;9.70;96.80
15930;DHT22;8064;51.142;4.780;2023-04-15T04:31:40;9.70;96.80
15930;DHT22;8064;51.142;4.780;2023-04-15T04:34:06;9.70;97.20
15930;DHT22;8064;51.142;4.780;2023-04-15T04:36:32;9.70;96.90
15930;DHT22;8064;51.142;4.780;2023-04-15T04:38:58;9.60;96.80
15930;DHT22;8064;51.142;4.780;2023-04-15T04:41:23;9.60;96.80
15930;DHT22;8064;51.142;4.780;2023-04-15T04:43:49;9.60;96.90
15930;DHT22;8064;51.142;4.780;2023-04-15T04:46:15;9.60;96.90
15930;DHT22;8064;51.142;4.780;2023-04-15T04:48:41;9.60;97.00
15930;DHT22;8064;51.142;4.780;2023-04-15T04:51:06;9.60;97.00
15930;DHT22;8064;51.142;4.780;2023-04-15T04:53:32;9.60;97.00
15930;DHT22;8064;51.142;4.780;2023-04-15T04:55:58;9.60;97.00
15930;DHT22;8064;51.142;4.780;2023-04-15T04:58:24;9.60;97.00
15930;DHT22;8064;51.142;4.780;2023-04-15T05:00:50;9.60;97.00
15930;DHT22;8064;51.142;4.780;2023-04-15T05:03:16;9.60;97.00
15930;DHT22;8064;51.142;4.780;2023-04-15T05:05:42;9.60;97.00
15930;DHT22;8064;51.142;4.780;2023-04-15T05:08:07;9.60;97.00
15930;DHT22;8064;51.142;4.780;2023-04-15T05:10:33;9.70;97.10
15930;DHT22;8064;51.142;4.780;2023-04-15T05:12:59;9.70;97.10
15930;DHT22;8064;51.142;4.780;2023-04-15T05:15:25;9.70;97.10
15930;DHT22;8064;51.142;4.780;2023-04-15T05:17:51;9.70;97.10
15930;DHT22;8064;51.142;4.780;2023-04-15T05:20:16;9.70;97.10
15930;DHT22;8064;51.142;4.780;2023-04-15T05:22:42;9.70;97.20
15930;DHT22;8064;51.142;4.780;2023-04-15T05:25:08;9.70;97.20
15930;DHT22;8064;51.142;4.780;2023-04-15T05:27:34;9.70;97.20
15930;DHT22;8064;51.142;4.780;2023-04-15T05:30:00;9.70;97.10
15930;DHT22;8064;51.142;4.780;2023-04-15T05:32:26;9.80;97.10
15930;DHT22;8064;51.142;4.780;2023-04-15T05:34:52;9.80;97.10
15930;DHT22;8064;51.142;4.780;2023-04-15T05:37:18;9.80;97.10
15930;DHT22;8064;51.142;4.780;2023-04-15T05:39:45;9.80;97.00
15930;DHT22;8064;51.142;4.780;2023-04-15T05:42:11;9.80;97.00
15930;DHT22;8064;51.142;4.780;2023-04-15T05:44:37;9.90;97.00
15930;DHT22;8064;51.142;4.780;2023-04-15T05:47:03;9.90;96.90
15930;DHT22;8064;51.142;4.780;2023-04-15T05:49:29;9.90;96.90
15930;DHT22;8064;51.142;4.780;2023-04-15T05:51:55;10.00;96.40
15930;DHT22;8064;51.142;4.780;2023-04-15T05:54:21;10.00;96.40
15930;DHT22;8064;51.142;4.780;2023-04-15T05:56:48;10.00;96.30
15930;DHT22;8064;51.142;4.780;2023-04-15T05:59:14;10.10;96.30
15930;DHT22;8064;51.142;4.780;2023-04-15T06:01:39;10.10;96.20
15930;DHT22;8064;51.142;4.780;2023-04-15T06:04:05;10.10;96.10
15930;DHT22;8064;51.142;4.780;2023-04-15T06:06:31;10.20;96.10
15930;DHT22;8064;51.142;4.780;2023-04-15T06:08:57;10.30;96.10
15930;DHT22;8064;51.142;4.780;2023-04-15T06:11:23;10.30;96.00
15930;DHT22;8064;51.142;4.780;2023-04-15T06:13:49;10.40;96.00
15930;DHT22;8064;51.142;4.780;2023-04-15T06:16:15;10.40;95.90
15930;DHT22;8064;51.142;4.780;2023-04-15T06:18:40;10.50;95.90
15930;DHT22;8064;51.142;4.780;2023-04-15T06:21:06;10.60;95.80
15930;DHT22;8064;51.142;4.780;2023-04-15T06:23:34;10.70;95.70
15930;DHT22;8064;51.142;4.780;2023-04-15T06:26:01;10.90;96.00
15930;DHT22;8064;51.142;4.780;2023-04-15T06:28:27;11.00;95.50
15930;DHT22;8064;51.142;4.780;2023-04-15T06:30:53;11.20;95.50
15930;DHT22;8064;51.142;4.780;2023-04-15T06:33:19;11.30;95.30
15930;DHT22;8064;51.142;4.780;2023-04-15T06:35:45;11.50;95.20
15930;DHT22;8064;51.142;4.780;2023-04-15T06:38:11;11.80;95.10
15930;DHT22;8064;51.142;4.780;2023-04-15T06:40:38;12.00;95.00
15930;DHT22;8064;51.142;4.780;2023-04-15T06:43:04;12.30;94.80
15930;DHT22;8064;51.142;4.780;2023-04-15T06:45:30;12.50;94.60
15930;DHT22;8064;51.142;4.780;2023-04-15T06:47:56;12.80;94.40
15930;DHT22;8064;51.142;4.780;2023-04-15T06:50:22;13.10;94.10
15930;DHT22;8064;51.142;4.780;2023-04-15T06:52:48;13.30;93.90
15930;DHT22;8064;51.142;4.780;2023-04-15T06:55:14;13.50;93.70
15930;DHT22;8064;51.142;4.780;2023-04-15T06:57:40;13.70;93.50
15930;DHT22;8064;51.142;4.780;2023-04-15T07:00:06;13.90;93.30
15930;DHT22;8064;51.142;4.780;2023-04-15T07:02:32;14.10;93.10
15930;DHT22;8064;51.142;4.780;2023-04-15T07:04:58;14.20;92.70
15930;DHT22;8064;51.142;4.780;2023-04-15T07:07:24;14.30;92.30
15930;DHT22;8064;51.142;4.780;2023-04-15T07:09:50;14.30;92.20
15930;DHT22;8064;51.142;4.780;2023-04-15T07:12:18;14.40;92.10
15930;DHT22;8064;51.142;4.780;2023-04-15T07:14:44;14.50;91.90
15930;DHT22;8064;51.142;4.780;2023-04-15T07:17:10;14.60;91.80
15930;DHT22;8064;51.142;4.780;2023-04-15T07:19:36;14.60;91.60
15930;DHT22;8064;51.142;4.780;2023-04-15T07:22:02;14.60;91.50
15930;DHT22;8064;51.142;4.780;2023-04-15T07:24:28;14.70;91.40
15930;DHT22;8064;51.142;4.780;2023-04-15T07:26:54;14.80;91.30
15930;DHT22;8064;51.142;4.780;2023-04-15T07:29:23;14.80;91.30
15930;DHT22;8064;51.142;4.780;2023-04-15T07:31:49;14.90;91.30
15930;DHT22;8064;51.142;4.780;2023-04-15T07:34:14;15.00;91.20
15930;DHT22;8064;51.142;4.780;2023-04-15T07:36:41;15.20;91.10
15930;DHT22;8064;51.142;4.780;2023-04-15T07:39:07;15.30;90.90
15930;DHT22;8064;51.142;4.780;2023-04-15T07:41:33;15.40;90.80
15930;DHT22;8064;51.142;4.780;2023-04-15T07:43:59;15.50;90.70
15930;DHT22;8064;51.142;4.780;2023-04-15T07:46:25;15.60;90.60
15930;DHT22;8064;51.142;4.780;2023-04-15T07:48:52;15.70;90.30
15930;DHT22;8064;51.142;4.780;2023-04-15T07:51:19;15.80;90.10
15930;DHT22;8064;51.142;4.780;2023-04-15T07:53:46;15.90;90.00
15930;DHT22;8064;51.142;4.780;2023-04-15T07:56:13;16.00;89.70
15930;DHT22;8064;51.142;4.780;2023-04-15T07:58:38;16.20;89.50
15930;DHT22;8064;51.142;4.780;2023-04-15T08:01:04;16.20;88.90
15930;DHT22;8064;51.142;4.780;2023-04-15T08:03:31;16.30;88.80
15930;DHT22;8064;51.142;4.780;2023-04-15T08:05:57;16.40;88.60
15930;DHT22;8064;51.142;4.780;2023-04-15T08:08:23;16.50;88.80
15930;DHT22;8064;51.142;4.780;2023-04-15T08:10:49;16.60;88.70
15930;DHT22;8064;51.142;4.780;2023-04-15T08:13:15;16.70;88.30
15930;DHT22;8064;51.142;4.780;2023-04-15T08:15:41;16.90;88.00
15930;DHT22;8064;51.142;4.780;2023-04-15T08:18:08;16.90;87.60
15930;DHT22;8064;51.142;4.780;2023-04-15T08:20:33;17.10;87.40
15930;DHT22;8064;51.142;4.780;2023-04-15T08:22:59;17.10;86.50
15930;DHT22;8064;51.142;4.780;2023-04-15T08:25:25;17.20;86.50
15930;DHT22;8064;51.142;4.780;2023-04-15T08:27:54;17.30;86.50
15930;DHT22;8064;51.142;4.780;2023-04-15T08:30:22;17.40;86.20
15930;DHT22;8064;51.142;4.780;2023-04-15T08:32:49;17.50;86.30
15930;DHT22;8064;51.142;4.780;2023-04-15T08:35:15;17.60;85.80
15930;DHT22;8064;51.142;4.780;2023-04-15T08:37:41;17.70;85.50
15930;DHT22;8064;51.142;4.780;2023-04-15T08:40:07;17.80;85.20
15930;DHT22;8064;51.142;4.780;2023-04-15T08:42:38;17.80;84.90
15930;DHT22;8064;51.142;4.780;2023-04-15T08:45:08;17.90;84.70
15930;DHT22;8064;51.142;4.780;2023-04-15T08:47:37;17.90;84.40
15930;DHT22;8064;51.142;4.780;2023-04-15T08:50:08;18.00;84.70
15930;DHT22;8064;51.142;4.780;2023-04-15T08:52:34;18.10;84.30
15930;DHT22;8064;51.142;4.780;2023-04-15T08:55:01;18.10;84.00
15930;DHT22;8064;51.142;4.780;2023-04-15T08:57:28;18.20;83.50
15930;DHT22;8064;51.142;4.780;2023-04-15T08:59:55;18.30;83.10
15930;DHT22;8064;51.142;4.780;2023-04-15T09:02:23;18.40;83.10
15930;DHT22;8064;51.142;4.780;2023-04-15T09:04:49;18.40;82.80
15930;DHT22;8064;51.142;4.780;2023-04-15T09:07:15;18.50;82.20
15930;DHT22;8064;51.142;4.780;2023-04-15T09:09:41;18.50;81.40
15930;DHT22;8064;51.142;4.780;2023-04-15T09:12:07;18.60;81.30
15930;DHT22;8064;51.142;4.780;2023-04-15T09:14:34;18.70;81.10
15930;DHT22;8064;51.142;4.780;2023-04-15T09:17:01;18.80;81.00
15930;DHT22;8064;51.142;4.780;2023-04-15T09:19:28;18.90;80.70
15930;DHT22;8064;51.142;4.780;2023-04-15T09:21:56;19.00;80.40
15930;DHT22;8064;51.142;4.780;2023-04-15T09:24:22;19.20;79.90
15930;DHT22;8064;51.142;4.780;2023-04-15T09:26:51;19.20;79.10
15930;DHT22;8064;51.142;4.780;2023-04-15T09:29:18;19.20;78.50
15930;DHT22;8064;51.142;4.780;2023-04-15T09:31:44;19.30;78.60
15930;DHT22;8064;51.142;4.780;2023-04-15T09:34:10;19.30;78.40
15930;DHT22;8064;51.142;4.780;2023-04-15T09:36:51;19.30;77.10
15930;DHT22;8064;51.142;4.780;2023-04-15T09:39:17;19.30;76.20
15930;DHT22;8064;51.142;4.780;2023-04-15T09:41:42;19.30;76.50
15930;DHT22;8064;51.142;4.780;2023-04-15T09:44:23;19.40;76.20
15930;DHT22;8064;51.142;4.780;2023-04-15T09:46:49;19.50;74.60
15930;DHT22;8064;51.142;4.780;2023-04-15T09:49:15;19.70;75.10
15930;DHT22;8064;51.142;4.780;2023-04-15T09:51:42;19.80;75.10
15930;DHT22;8064;51.142;4.780;2023-04-15T09:54:08;19.90;74.00
15930;DHT22;8064;51.142;4.780;2023-04-15T09:56:35;20.00;74.10
15930;DHT22;8064;51.142;4.780;2023-04-15T09:59:04;20.10;72.80
15930;DHT22;8064;51.142;4.780;2023-04-15T10:01:30;20.10;72.20
15930;DHT22;8064;51.142;4.780;2023-04-15T10:03:56;20.10;71.90
15930;DHT22;8064;51.142;4.780;2023-04-15T10:06:25;20.20;71.30
15930;DHT22;8064;51.142;4.780;2023-04-15T10:08:51;20.40;71.80
15930;DHT22;8064;51.142;4.780;2023-04-15T10:11:19;20.50;71.70
15930;DHT22;8064;51.142;4.780;2023-04-15T10:13:48;20.60;71.40
15930;DHT22;8064;51.142;4.780;2023-04-15T10:16:16;20.70;70.00
15930;DHT22;8064;51.142;4.780;2023-04-15T10:18:45;20.80;68.90
15930;DHT22;8064;51.142;4.780;2023-04-15T10:21:12;21.00;68.80
15930;DHT22;8064;51.142;4.780;2023-04-15T10:23:44;21.20;68.70
15930;DHT22;8064;51.142;4.780;2023-04-15T10:26:11;21.20;68.10
15930;DHT22;8064;51.142;4.780;2023-04-15T10:28:39;21.30;67.50
15930;DHT22;8064;51.142;4.780;2023-04-15T10:31:06;21.40;67.30
15930;DHT22;8064;51.142;4.780;2023-04-15T10:33:32;21.40;67.60
15930;DHT22;8064;51.142;4.780;2023-04-15T10:35:59;21.50;67.50
15930;DHT22;8064;51.142;4.780;2023-04-15T10:38:44;21.70;67.00
15930;DHT22;8064;51.142;4.780;2023-04-15T10:41:23;21.80;66.80
15930;DHT22;8064;51.142;4.780;2023-04-15T10:43:53;21.80;65.90
15930;DHT22;8064;51.142;4.780;2023-04-15T10:46:21;21.80;65.60
15930;DHT22;8064;51.142;4.780;2023-04-15T10:48:49;21.80;66.10
15930;DHT22;8064;51.142;4.780;2023-04-15T10:51:16;21.80;64.50
15930;DHT22;8064;51.142;4.780;2023-04-15T10:53:55;21.70;63.80
15930;DHT22;8064;51.142;4.780;2023-04-15T10:56:22;21.50;62.30
15930;DHT22;8064;51.142;4.780;2023-04-15T10:58:47;21.40;62.30
15930;DHT22;8064;51.142;4.780;2023-04-15T11:01:13;21.30;61.80
15930;DHT22;8064;51.142;4.780;2023-04-15T11:03:42;21.30;61.70
15930;DHT22;8064;51.142;4.780;2023-04-15T11:06:08;21.40;61.50
15930;DHT22;8064;51.142;4.780;2023-04-15T11:08:53;21.40;61.40
15930;DHT22;8064;51.142;4.780;2023-04-15T11:11:20;21.50;60.00
15930;DHT22;8064;51.142;4.780;2023-04-15T11:13:48;21.50;60.50
15930;DHT22;8064;51.142;4.780;2023-04-15T11:16:14;21.60;60.20
15930;DHT22;8064;51.142;4.780;2023-04-15T11:18:40;21.70;60.30
15930;DHT22;8064;51.142;4.780;2023-04-15T11:21:07;21.80;60.00
15930;DHT22;8064;51.142;4.780;2023-04-15T11:26:25;21.90;59.90
15930;DHT22;8064;51.142;4.780;2023-04-15T11:28:51;21.90;60.00
15930;DHT22;8064;51.142;4.780;2023-04-15T11:31:18;21.90;60.20
15930;DHT22;8064;51.142;4.780;2023-04-15T11:34:03;21.80;59.90
15930;DHT22;8064;51.142;4.780;2023-04-15T11:36:29;21.70;59.00
15930;DHT22;8064;51.142;4.780;2023-04-15T11:38:58;21.60;58.80
15930;DHT22;8064;51.142;4.780;2023-04-15T11:41:24;21.50;57.90
15930;DHT22;8064;51.142;4.780;2023-04-15T11:43:50;21.40;57.70
15930;DHT22;8064;51.142;4.780;2023-04-15T11:46:16;21.30;57.60
15930;DHT22;8064;51.142;4.780;2023-04-15T11:48:44;21.20;57.40
15930;DHT22;8064;51.142;4.780;2023-04-15T11:51:10;21.10;57.50
15930;DHT22;8064;51.142;4.780;2023-04-15T11:53:38;21.10;57.90
15930;DHT22;8064;51.142;4.780;2023-04-15T11:56:05;21.10;58.20
15930;DHT22;8064;51.142;4.780;2023-04-15T11:58:34;21.10;58.50
15930;DHT22;8064;51.142;4.780;2023-04-15T12:01:00;21.00;59.00
15930;DHT22;8064;51.142;4.780;2023-04-15T12:03:30;21.00;59.40
15930;DHT22;8064;51.142;4.780;2023-04-15T12:17:05;20.70;59.00
15930;DHT22;8064;51.142;4.780;2023-04-15T12:19:54;20.60;59.40
15930;DHT22;8064;51.142;4.780;2023-04-15T12:22:20;20.50;59.50
15930;DHT22;8064;51.142;4.780;2023-04-15T12:24:46;20.50;59.40
15930;DHT22;8064;51.142;4.780;2023-04-15T12:27:14;20.40;59.10
15930;DHT22;8064;51.142;4.780;2023-04-15T12:29:42;20.40;59.50
15930;DHT22;8064;51.142;4.780;2023-04-15T12:32:11;20.40;60.00
15930;DHT22;8064;51.142;4.780;2023-04-15T12:34:41;20.40;59.80
15930;DHT22;8064;51.142;4.780;2023-04-15T12:37:08;20.40;59.10
15930;DHT22;8064;51.142;4.780;2023-04-15T12:39:36;20.40;59.00
15930;DHT22;8064;51.142;4.780;2023-04-15T12:42:04;20.30;59.20
15930;DHT22;8064;51.142;4.780;2023-04-15T12:44:31;20.20;59.50
15930;DHT22;8064;51.142;4.780;2023-04-15T12:46:57;20.10;58.70
15930;DHT22;8064;51.142;4.780;2023-04-15T12:49:25;20.00;58.10
15930;DHT22;8064;51.142;4.780;2023-04-15T12:51:53;19.80;57.80
15930;DHT22;8064;51.142;4.780;2023-04-15T12:54:19;19.70;58.00
15930;DHT22;8064;51.142;4.780;2023-04-15T12:56:47;19.60;58.10
15930;DHT22;8064;51.142;4.780;2023-04-15T12:59:14;19.50;58.50
15930;DHT22;8064;51.142;4.780;2023-04-15T13:01:40;19.40;58.90
15930;DHT22;8064;51.142;4.780;2023-04-15T13:04:06;19.40;59.20
15930;DHT22;8064;51.142;4.780;2023-04-15T13:06:33;19.30;59.30
15930;DHT22;8064;51.142;4.780;2023-04-15T13:08:59;19.30;59.50
15930;DHT22;8064;51.142;4.780;2023-04-15T13:11:27;19.30;59.90
15930;DHT22;8064;51.142;4.780;2023-04-15T13:13:55;19.20;59.90
15930;DHT22;8064;51.142;4.780;2023-04-15T13:16:22;19.20;60.20
15930;DHT22;8064;51.142;4.780;2023-04-15T13:18:49;19.20;60.40
15930;DHT22;8064;51.142;4.780;2023-04-15T13:21:15;19.20;60.00
15930;DHT22;8064;51.142;4.780;2023-04-15T13:23:41;19.10;59.90
15930;DHT22;8064;51.142;4.780;2023-04-15T13:26:07;19.10;60.20
15930;DHT22;8064;51.142;4.780;2023-04-15T13:28:33;19.10;60.40
15930;DHT22;8064;51.142;4.780;2023-04-15T13:30:59;19.10;61.40
15930;DHT22;8064;51.142;4.780;2023-04-15T13:33:26;19.10;62.10
15930;DHT22;8064;51.142;4.780;2023-04-15T13:35:52;19.10;62.00
15930;DHT22;8064;51.142;4.780;2023-04-15T13:38:18;19.00;62.50
15930;DHT22;8064;51.142;4.780;2023-04-15T13:40:44;19.00;62.90
15930;DHT22;8064;51.142;4.780;2023-04-15T13:43:11;18.90;64.10
15930;DHT22;8064;51.142;4.780;2023-04-15T13:45:37;18.90;63.70
15930;DHT22;8064;51.142;4.780;2023-04-15T13:48:03;19.00;64.00
15930;DHT22;8064;51.142;4.780;2023-04-15T13:50:29;19.00;64.40
15930;DHT22;8064;51.142;4.780;2023-04-15T13:52:55;19.10;64.60
15930;DHT22;8064;51.142;4.780;2023-04-15T13:55:22;19.00;64.90
15930;DHT22;8064;51.142;4.780;2023-04-15T13:57:47;19.00;65.20
15930;DHT22;8064;51.142;4.780;2023-04-15T14:00:15;19.00;65.40
15930;DHT22;8064;51.142;4.780;2023-04-15T14:02:41;19.00;65.80
15930;DHT22;8064;51.142;4.780;2023-04-15T14:05:07;19.00;65.90
15930;DHT22;8064;51.142;4.780;2023-04-15T14:07:33;19.10;67.30
15930;DHT22;8064;51.142;4.780;2023-04-15T14:09:59;19.10;67.20
15930;DHT22;8064;51.142;4.780;2023-04-15T14:12:25;19.10;66.00
15930;DHT22;8064;51.142;4.780;2023-04-15T14:14:51;19.10;66.10
15930;DHT22;8064;51.142;4.780;2023-04-15T14:17:17;19.00;66.50
15930;DHT22;8064;51.142;4.780;2023-04-15T14:19:42;19.00;66.30
15930;DHT22;8064;51.142;4.780;2023-04-15T14:22:08;18.90;66.30
15930;DHT22;8064;51.142;4.780;2023-04-15T14:24:34;18.80;66.50
15930;DHT22;8064;51.142;4.780;2023-04-15T14:27:00;18.80;66.80
15930;DHT22;8064;51.142;4.780;2023-04-15T14:29:27;18.70;66.80
15930;DHT22;8064;51.142;4.780;2023-04-15T14:31:52;18.70;66.00
15930;DHT22;8064;51.142;4.780;2023-04-15T14:34:18;18.60;65.70
15930;DHT22;8064;51.142;4.780;2023-04-15T14:36:46;18.50;66.10
15930;DHT22;8064;51.142;4.780;2023-04-15T14:39:13;18.40;65.70
15930;DHT22;8064;51.142;4.780;2023-04-15T14:41:38;18.30;65.70
15930;DHT22;8064;51.142;4.780;2023-04-15T14:44:04;18.30;66.60
15930;DHT22;8064;51.142;4.780;2023-04-15T14:46:30;18.30;67.00
15930;DHT22;8064;51.142;4.780;2023-04-15T14:48:56;18.30;66.30
15930;DHT22;8064;51.142;4.780;2023-04-15T14:51:22;18.30;66.20
15930;DHT22;8064;51.142;4.780;2023-04-15T14:53:48;18.30;66.20
15930;DHT22;8064;51.142;4.780;2023-04-15T14:56:13;18.30;66.20
15930;DHT22;8064;51.142;4.780;2023-04-15T14:58:39;18.20;66.30
15930;DHT22;8064;51.142;4.780;2023-04-15T15:01:05;18.20;66.70
15930;DHT22;8064;51.142;4.780;2023-04-15T15:03:31;18.20;67.60
15930;DHT22;8064;51.142;4.780;2023-04-15T15:05:56;18.30;68.50
15930;DHT22;8064;51.142;4.780;2023-04-15T15:08:22;18.40;68.70
15930;DHT22;8064;51.142;4.780;2023-04-15T15:10:48;18.40;67.60
15930;DHT22;8064;51.142;4.780;2023-04-15T15:13:14;18.30;66.50
15930;DHT22;8064;51.142;4.780;2023-04-15T15:15:40;18.20;66.50
15930;DHT22;8064;51.142;4.780;2023-04-15T15:18:06;18.10;66.70
15930;DHT22;8064;51.142;4.780;2023-04-15T15:20:32;18.00;66.70
15930;DHT22;8064;51.142;4.780;2023-04-15T15:22:59;17.80;66.90
15930;DHT22;8064;51.142;4.780;2023-04-15T15:25:25;17.70;67.30
15930;DHT22;8064;51.142;4.780;2023-04-15T15:27:51;17.60;67.30
15930;DHT22;8064;51.142;4.780;2023-04-15T15:30:17;17.60;67.80
15930;DHT22;8064;51.142;4.780;2023-04-15T15:32:43;17.60;68.20
15930;DHT22;8064;51.142;4.780;2023-04-15T15:35:09;17.70;68.80
15930;DHT22;8064;51.142;4.780;2023-04-15T15:37:36;17.60;68.70
15930;DHT22;8064;51.142;4.780;2023-04-15T15:40:03;17.50;68.50
15930;DHT22;8064;51.142;4.780;2023-04-15T15:42:31;17.50;69.20
15930;DHT22;8064;51.142;4.780;2023-04-15T15:44:57;17.40;68.40
15930;DHT22;8064;51.142;4.780;2023-04-15T15:47:23;17.40;68.60
15930;DHT22;8064;51.142;4.780;2023-04-15T15:49:48;17.30;68.80
15930;DHT22;8064;51.142;4.780;2023-04-15T15:52:14;17.20;68.90
15930;DHT22;8064;51.142;4.780;2023-04-15T15:54:40;17.10;68.40
15930;DHT22;8064;51.142;4.780;2023-04-15T15:57:06;17.00;68.10